createdAt,value
2023-05-10T00:00:45.028Z,2.40
2023-05-10T00:03:47.251Z,1.98
2023-05-10T00:06:49.486Z,2.30
2023-05-10T00:09:52.572Z,2.10
2023-05-10T00:12:54.750Z,2.22
2023-05-10T00:15:56.978Z,2.10
2023-05-10T00:19:00.501Z,1.90
2023-05-10T00:22:02.624Z,1.83
2023-05-10T00:25:05.328Z,2.20
2023-05-10T00:28:07.650Z,1.45
2023-05-10T00:31:09.810Z,2.30
2023-05-10T00:34:12.067Z,2.10
2023-05-10T00:37:14.275Z,1.60
2023-05-10T00:40:16.941Z,1.83
2023-05-10T00:43:24.401Z,1.38
2023-05-10T00:46:27.025Z,1.80
2023-05-10T00:49:29.593Z,1.60
2023-05-10T00:52:32.054Z,1.88
2023-05-10T00:55:34.838Z,1.77
2023-05-10T00:58:37.257Z,1.80
2023-05-10T01:01:39.934Z,1.38
2023-05-10T01:04:42.247Z,1.70
2023-05-10T01:07:44.418Z,1.40
2023-05-10T01:10:46.665Z,1.48
2023-05-10T01:13:53.907Z,1.40
2023-05-10T01:16:56.124Z,2.10
2023-05-10T01:19:58.333Z,1.60
2023-05-10T01:23:18.721Z,1.55
2023-05-10T01:26:36.075Z,1.70
2023-05-10T01:30:21.854Z,1.60
2023-05-10T01:33:28.944Z,1.67
2023-05-10T01:36:34.855Z,2.00
2023-05-10T01:40:16.205Z,1.70
2023-05-10T01:43:25.220Z,1.90
2023-05-10T01:46:33.825Z,1.75
2023-05-10T01:49:41.307Z,1.77
2023-05-10T01:52:45.722Z,2.42
2023-05-10T01:55:53.511Z,2.00
2023-05-10T01:58:56.428Z,2.28
2023-05-10T02:02:00.062Z,1.70
2023-05-10T02:05:04.789Z,2.03
2023-05-10T02:08:08.136Z,1.77
2023-05-10T02:11:14.375Z,1.50
2023-05-10T02:14:16.793Z,1.67
2023-05-10T02:17:19.597Z,1.65
2023-05-10T02:20:23.570Z,1.90
2023-05-10T02:23:26.717Z,1.70
2023-05-10T02:26:29.044Z,1.63
2023-05-10T02:29:32.380Z,1.65
2023-05-10T02:32:35.333Z,1.50
2023-05-10T02:35:38.781Z,1.50
2023-05-10T02:38:41.450Z,1.65
2023-05-10T02:41:44.408Z,1.50
2023-05-10T02:44:47.401Z,1.55
2023-05-10T02:47:50.985Z,1.55
2023-05-10T02:50:54.025Z,1.50
2023-05-10T02:53:56.805Z,1.42
2023-05-10T02:57:03.864Z,1.65
2023-05-10T03:00:06.945Z,1.63
2023-05-10T03:03:09.357Z,1.70
2023-05-10T03:06:11.567Z,1.63
2023-05-10T03:09:16.425Z,1.60
2023-05-10T03:12:43.857Z,1.50
2023-05-10T03:16:11.488Z,1.65
2023-05-10T03:19:23.982Z,1.60
2023-05-10T03:22:30.878Z,1.50
2023-05-10T03:25:33.482Z,1.73
2023-05-10T03:28:37.773Z,1.60
2023-05-10T03:31:41.399Z,1.65
2023-05-10T03:34:46.585Z,1.70
2023-05-10T03:37:48.824Z,1.50
2023-05-10T03:40:51.055Z,1.55
2023-05-10T03:43:53.233Z,1.40
2023-05-10T03:46:55.507Z,1.50
2023-05-10T03:49:58.095Z,1.63
2023-05-10T03:53:00.304Z,1.67
2023-05-10T03:56:03.863Z,1.83
2023-05-10T03:59:08.451Z,1.80
2023-05-10T04:02:11.028Z,1.73
2023-05-10T04:05:13.622Z,1.90
2023-05-10T04:08:17.406Z,1.90
2023-05-10T04:11:19.635Z,1.75
2023-05-10T04:14:21.874Z,1.80
2023-05-10T04:17:24.058Z,1.73
2023-05-10T04:20:26.250Z,1.67
2023-05-10T04:23:28.769Z,2.00
2023-05-10T04:26:31.044Z,1.67
2023-05-10T04:29:33.143Z,2.08
2023-05-10T04:32:35.329Z,2.10
2023-05-10T04:35:37.878Z,1.85
2023-05-10T04:38:40.103Z,1.88
2023-05-10T04:41:42.306Z,1.90
2023-05-10T04:44:44.495Z,1.80
2023-05-10T04:47:46.624Z,1.88
2023-05-10T04:50:48.808Z,1.90
2023-05-10T04:54:01.578Z,2.10
2023-05-10T04:57:07.205Z,2.65
2023-05-10T05:00:09.983Z,2.10
2023-05-10T05:03:12.268Z,2.25
2023-05-10T05:06:14.455Z,1.73
2023-05-10T05:09:17.339Z,1.88
2023-05-10T05:12:19.569Z,2.10
2023-05-10T05:15:21.800Z,2.00
2023-05-10T05:18:23.950Z,2.08
2023-05-10T05:21:27.909Z,2.00
2023-05-10T05:24:30.094Z,2.00
2023-05-10T05:27:32.355Z,1.90
2023-05-10T05:30:34.477Z,1.80
2023-05-10T05:33:36.812Z,2.25
2023-05-10T05:36:41.792Z,2.50
2023-05-10T05:39:44.263Z,2.10
2023-05-10T05:42:46.407Z,2.30
2023-05-10T05:45:48.671Z,1.90
2023-05-10T05:48:50.910Z,2.15
2023-05-10T05:51:53.054Z,1.95
2023-05-10T05:54:55.531Z,1.73
2023-05-10T05:57:57.884Z,2.20
2023-05-10T06:01:00.029Z,2.15
2023-05-10T06:04:02.317Z,1.80
2023-05-10T06:07:04.897Z,1.80
2023-05-10T06:10:07.749Z,1.90
2023-05-10T06:13:10.070Z,2.40
2023-05-10T06:16:12.256Z,1.80
2023-05-10T06:19:14.380Z,2.47
2023-05-10T06:22:16.517Z,2.00
2023-05-10T06:25:19.433Z,2.00
2023-05-10T06:28:22.069Z,1.90
2023-05-10T06:31:24.308Z,2.00
2023-05-10T06:34:26.670Z,2.33
2023-05-10T06:37:29.186Z,2.20
2023-05-10T06:40:31.398Z,1.65
2023-05-10T06:43:33.638Z,2.30
2023-05-10T06:46:36.204Z,1.70
2023-05-10T06:49:38.492Z,2.65
2023-05-10T06:52:44.195Z,2.15
2023-05-10T06:55:46.510Z,2.40
2023-05-10T06:58:49.491Z,2.53
2023-05-10T07:01:52.118Z,2.30
2023-05-10T07:04:54.522Z,2.70
2023-05-10T07:07:56.726Z,2.80
2023-05-10T07:11:08.073Z,2.22
2023-05-10T07:14:10.551Z,2.63
2023-05-10T07:17:12.792Z,2.53
2023-05-10T07:20:15.419Z,2.25
2023-05-10T07:23:18.768Z,2.30
2023-05-10T07:26:21.982Z,2.23
2023-05-10T07:29:24.255Z,2.40
2023-05-10T07:32:26.566Z,2.00
2023-05-10T07:35:28.934Z,2.10
2023-05-10T07:38:31.067Z,2.20
2023-05-10T07:41:35.101Z,2.00
2023-05-10T07:44:37.840Z,1.95
2023-05-10T07:47:40.106Z,2.03
2023-05-10T07:50:42.307Z,2.28
2023-05-10T07:53:44.399Z,2.22
2023-05-10T07:56:47.848Z,2.30
2023-05-10T07:59:50.019Z,1.73
2023-05-10T08:02:52.421Z,2.20
2023-05-10T08:05:54.618Z,2.15
2023-05-10T08:08:57.097Z,2.03
2023-05-10T08:12:00.296Z,1.77
2023-05-10T08:15:02.504Z,1.40
2023-05-10T08:18:05.378Z,1.80
2023-05-10T08:21:07.970Z,2.08
2023-05-10T08:24:10.176Z,1.98
2023-05-10T08:27:14.562Z,2.00
2023-05-10T08:30:16.629Z,1.75
2023-05-10T08:33:19.644Z,1.85
2023-05-10T08:36:22.969Z,1.80
2023-05-10T08:39:30.396Z,1.38
2023-05-10T08:42:36.338Z,1.88
2023-05-10T08:45:40.347Z,1.50
2023-05-10T08:48:43.511Z,2.20
2023-05-10T08:51:52.095Z,1.80
2023-05-10T08:54:54.334Z,1.88
2023-05-10T08:57:56.566Z,2.43
2023-05-10T09:00:59.035Z,1.58
2023-05-10T09:04:01.335Z,1.60
2023-05-10T09:07:03.734Z,1.80
2023-05-10T09:10:14.313Z,1.80
2023-05-10T09:13:31.939Z,2.17
2023-05-10T09:16:34.176Z,2.00
2023-05-10T09:19:36.393Z,1.63
2023-05-10T09:22:39.313Z,2.08
2023-05-10T09:25:42.613Z,1.58
2023-05-10T09:28:59.199Z,1.80
2023-05-10T09:32:01.716Z,1.90
2023-05-10T09:35:25.856Z,1.92
2023-05-10T09:38:29.298Z,2.20
2023-05-10T09:41:31.551Z,1.90
2023-05-10T09:44:34.869Z,1.90
2023-05-10T09:47:37.229Z,1.92
2023-05-10T09:50:39.785Z,1.60
2023-05-10T09:53:42.043Z,2.30
2023-05-10T09:56:44.194Z,1.70
2023-05-10T09:59:46.617Z,1.80
2023-05-10T10:02:54.990Z,1.30
2023-05-10T10:05:57.816Z,1.70
2023-05-10T10:08:59.992Z,2.03
2023-05-10T10:12:03.418Z,1.45
2023-05-10T10:15:06.496Z,1.65
2023-05-10T10:18:09.126Z,2.00
2023-05-10T10:21:12.047Z,1.33
2023-05-10T10:24:14.214Z,1.20
2023-05-10T10:27:40.491Z,1.35
2023-05-10T10:30:44.594Z,1.67
2023-05-10T10:34:08.084Z,1.23
2023-05-10T10:37:12.530Z,1.35
2023-05-10T10:40:44.204Z,1.35
2023-05-10T10:43:46.413Z,1.10
2023-05-10T10:47:04.565Z,1.48
2023-05-10T10:50:09.241Z,1.30
2023-05-10T10:53:13.188Z,1.07
2023-05-10T10:56:16.508Z,1.45
2023-05-10T10:59:28.087Z,1.40
2023-05-10T11:02:35.425Z,1.20
2023-05-10T11:05:40.521Z,1.17
2023-05-10T11:08:46.955Z,1.60
2023-05-10T11:11:53.685Z,1.20
2023-05-10T11:14:58.735Z,1.60
2023-05-10T11:18:01.254Z,1.40
2023-05-10T11:21:05.981Z,1.20
2023-05-10T11:24:14.739Z,0.93
2023-05-10T11:27:16.944Z,1.23
2023-05-10T11:30:19.566Z,1.20
2023-05-10T11:33:22.054Z,1.13
2023-05-10T11:36:28.848Z,1.00
2023-05-10T11:39:32.708Z,1.23
2023-05-10T11:42:34.939Z,1.27
2023-05-10T11:45:37.573Z,1.30
2023-05-10T11:48:40.723Z,1.20
2023-05-10T11:51:44.477Z,1.42
2023-05-10T11:54:53.732Z,0.93
2023-05-10T11:57:58.043Z,0.90
2023-05-10T12:01:00.974Z,1.17
2023-05-10T12:04:03.643Z,1.20
2023-05-10T12:07:10.532Z,0.90
2023-05-10T12:10:27.574Z,1.40
2023-05-10T12:13:29.763Z,0.98
2023-05-10T12:16:32.311Z,0.95
2023-05-10T12:19:40.932Z,1.20
2023-05-10T12:22:50.874Z,0.80
2023-05-10T12:25:54.935Z,0.83
2023-05-10T12:29:13.327Z,1.10
2023-05-10T12:32:15.490Z,1.13
2023-05-10T12:35:17.746Z,0.97
2023-05-10T12:38:30.441Z,1.10
2023-05-10T12:41:32.688Z,1.00
2023-05-10T12:44:34.890Z,0.90
2023-05-10T12:47:37.228Z,0.70
2023-05-10T12:50:39.423Z,1.10
2023-05-10T12:53:45.631Z,0.95
2023-05-10T12:56:48.892Z,0.97
2023-05-10T13:00:05.382Z,0.93
2023-05-10T13:03:19.697Z,1.20
2023-05-10T13:06:36.116Z,1.20
2023-05-10T13:09:42.025Z,0.85
2023-05-10T13:12:44.382Z,0.90
2023-05-10T13:15:46.525Z,1.20
2023-05-10T13:18:48.705Z,1.10
2023-05-10T13:21:50.855Z,1.00
2023-05-10T13:24:55.019Z,0.52
2023-05-10T13:27:57.180Z,0.60
2023-05-10T13:31:00.914Z,0.80
2023-05-10T13:34:03.704Z,1.00
2023-05-10T13:37:05.910Z,0.80
2023-05-10T13:40:08.578Z,0.63
2023-05-10T13:43:11.074Z,0.82
2023-05-10T13:46:14.887Z,0.82
2023-05-10T13:50:06.829Z,0.98
2023-05-10T13:53:50.385Z,0.98
2023-05-10T13:57:00.999Z,0.80
2023-05-10T14:00:03.651Z,0.60
2023-05-10T14:03:12.102Z,0.95
2023-05-10T14:06:14.679Z,0.60
2023-05-10T14:09:17.574Z,0.87
2023-05-10T14:12:19.707Z,0.88
2023-05-10T14:15:22.037Z,0.55
2023-05-10T14:18:24.187Z,0.90
2023-05-10T14:21:26.337Z,0.70
2023-05-10T14:24:28.664Z,0.77
2023-05-10T14:27:31.391Z,0.65
2023-05-10T14:30:36.399Z,0.60
2023-05-10T14:33:38.530Z,0.63
2023-05-10T14:36:41.408Z,0.70
2023-05-10T14:39:43.721Z,0.80
2023-05-10T14:42:45.837Z,0.45
2023-05-10T14:45:48.580Z,0.40
2023-05-10T14:48:50.797Z,0.65
2023-05-10T14:51:53.196Z,0.63
2023-05-10T14:54:55.386Z,0.80
2023-05-10T14:57:57.502Z,0.57
2023-05-10T15:00:59.685Z,0.70
2023-05-10T15:04:02.221Z,0.63
2023-05-10T15:07:05.100Z,0.60
2023-05-10T15:10:07.855Z,0.57
2023-05-10T15:13:09.959Z,0.60
2023-05-10T15:16:12.124Z,0.47
2023-05-10T15:19:14.292Z,0.68
2023-05-10T15:22:16.504Z,0.57
2023-05-10T15:25:19.249Z,0.65
2023-05-10T15:28:21.586Z,0.73
2023-05-10T15:31:23.772Z,0.70
2023-05-10T15:34:25.967Z,0.70
2023-05-10T15:37:28.423Z,0.40
2023-05-10T15:40:30.556Z,0.60
2023-05-10T15:43:32.680Z,0.90
2023-05-10T15:46:34.945Z,0.52
2023-05-10T15:49:37.279Z,0.80
2023-05-10T15:52:39.472Z,0.50
2023-05-10T15:55:41.637Z,0.55
2023-05-10T15:58:44.027Z,0.65
2023-05-10T16:01:46.287Z,0.63
2023-05-10T16:04:48.551Z,0.73
2023-05-10T16:07:50.714Z,1.25
2023-05-10T16:10:52.910Z,0.90
2023-05-10T16:13:55.129Z,0.70
2023-05-10T16:16:57.354Z,0.50
2023-05-10T16:19:59.602Z,0.70
2023-05-10T16:23:05.911Z,0.73
2023-05-10T16:26:08.817Z,0.55
2023-05-10T16:29:10.989Z,0.60
2023-05-10T16:32:13.090Z,0.90
2023-05-10T16:35:15.473Z,0.93
2023-05-10T16:38:17.957Z,1.30
2023-05-10T16:41:20.077Z,1.00
2023-05-10T16:44:25.184Z,1.20
2023-05-10T16:47:28.065Z,0.90
2023-05-10T16:50:30.425Z,1.13
2023-05-10T16:53:32.549Z,0.80
2023-05-10T16:56:34.684Z,1.02
2023-05-10T16:59:36.835Z,1.00
2023-05-10T17:02:39.358Z,1.10
2023-05-10T17:05:42.104Z,1.00
2023-05-10T17:08:44.755Z,1.00
2023-05-10T17:11:47.107Z,1.20
2023-05-10T17:14:49.257Z,1.17
2023-05-10T17:17:51.552Z,1.20
2023-05-10T17:20:53.706Z,0.93
2023-05-10T17:23:55.925Z,1.00
2023-05-10T17:26:58.084Z,1.17
2023-05-10T17:30:00.623Z,0.88
2023-05-10T17:33:02.762Z,1.33
2023-05-10T17:36:05.005Z,1.00
2023-05-10T17:39:07.097Z,1.02
2023-05-10T17:42:09.217Z,0.77
2023-05-10T17:45:11.784Z,1.25
2023-05-10T17:48:14.103Z,0.70
2023-05-10T17:51:16.276Z,1.23
2023-05-10T17:54:18.431Z,0.90
2023-05-10T17:57:20.819Z,1.02
2023-05-10T18:00:23.099Z,1.20
2023-05-10T18:03:25.299Z,1.50
2023-05-10T18:06:27.498Z,0.88
2023-05-10T18:09:30.117Z,1.00
2023-05-10T18:12:32.250Z,1.25
2023-05-10T18:15:35.381Z,1.10
2023-05-10T18:18:38.190Z,1.02
2023-05-10T18:21:40.362Z,1.00
2023-05-10T18:24:42.814Z,1.30
2023-05-10T18:27:44.998Z,1.00
2023-05-10T18:30:47.164Z,0.93
2023-05-10T18:33:49.267Z,1.20
2023-05-10T18:36:52.115Z,1.05
2023-05-10T18:39:54.510Z,1.05
2023-05-10T18:42:56.743Z,1.00
2023-05-10T18:45:58.886Z,1.30
2023-05-10T18:49:01.200Z,1.30
2023-05-10T18:52:03.414Z,1.20
2023-05-10T18:55:06.656Z,0.73
2023-05-10T18:58:09.070Z,1.20
2023-05-10T19:01:11.308Z,0.90
2023-05-10T19:04:13.511Z,0.93
2023-05-10T19:07:15.862Z,1.00
2023-05-10T19:10:17.998Z,0.77
2023-05-10T19:13:20.269Z,0.93
2023-05-10T19:16:23.373Z,1.13
2023-05-10T19:19:26.205Z,1.20
2023-05-10T19:22:44.984Z,0.93
2023-05-10T19:25:50.610Z,0.93
2023-05-10T19:28:52.813Z,1.13
2023-05-10T19:31:55.129Z,1.00
2023-05-10T19:34:57.365Z,1.07
2023-05-10T19:37:59.562Z,0.85
2023-05-10T19:41:02.031Z,1.15
2023-05-10T19:44:04.149Z,1.33
2023-05-10T19:47:07.783Z,1.10
2023-05-10T19:50:10.341Z,1.10
2023-05-10T19:53:12.603Z,1.00
2023-05-10T19:56:14.804Z,0.90
2023-05-10T19:59:16.906Z,1.38
2023-05-10T20:02:19.118Z,1.25
2023-05-10T20:05:21.831Z,1.43
2023-05-10T20:08:24.672Z,1.30
2023-05-10T20:11:26.810Z,1.27
2023-05-10T20:14:28.932Z,1.05
2023-05-10T20:17:31.275Z,1.60
2023-05-10T20:20:33.592Z,1.15
2023-05-10T20:23:35.806Z,1.60
2023-05-10T20:26:38.024Z,1.00
2023-05-10T20:29:40.137Z,1.33
2023-05-10T20:32:42.410Z,0.90
2023-05-10T20:35:44.615Z,1.23
2023-05-10T20:38:46.787Z,1.33
2023-05-10T20:41:49.490Z,1.27
2023-05-10T20:44:51.756Z,1.08
2023-05-10T20:47:57.077Z,1.27
2023-05-10T20:51:01.203Z,1.30
2023-05-10T20:54:04.323Z,1.80
2023-05-10T20:57:06.517Z,1.20
2023-05-10T21:00:09.544Z,1.23
2023-05-10T21:03:11.764Z,1.38
2023-05-10T21:06:14.001Z,1.07
2023-05-10T21:09:17.501Z,1.13
2023-05-10T21:12:19.655Z,1.38
2023-05-10T21:15:25.617Z,1.13
2023-05-10T21:18:28.038Z,1.13
2023-05-10T21:21:30.320Z,1.17
2023-05-10T21:24:33.244Z,1.25
2023-05-10T21:27:35.531Z,1.30
2023-05-10T21:30:37.706Z,1.35
2023-05-10T21:33:39.836Z,1.55
2023-05-10T21:36:42.027Z,1.27
2023-05-10T21:39:44.509Z,1.17
2023-05-10T21:42:49.528Z,1.60
2023-05-10T21:45:51.772Z,1.33
2023-05-10T21:48:53.915Z,1.08
2023-05-10T21:51:56.077Z,1.27
2023-05-10T21:54:58.257Z,1.48
2023-05-10T21:58:00.382Z,1.20
2023-05-10T22:01:03.197Z,1.35
2023-05-10T22:04:05.486Z,1.40
2023-05-10T22:07:07.667Z,1.50
2023-05-10T22:10:10.116Z,1.17
2023-05-10T22:13:12.244Z,1.55
2023-05-10T22:16:14.715Z,1.50
2023-05-10T22:19:16.946Z,1.30
2023-05-10T22:22:19.113Z,1.90
2023-05-10T22:25:21.224Z,1.42
2023-05-10T22:28:23.322Z,1.50
2023-05-10T22:31:25.600Z,1.60
2023-05-10T22:34:27.847Z,1.83
2023-05-10T22:37:29.976Z,1.70
2023-05-10T22:40:32.164Z,1.13
2023-05-10T22:43:34.293Z,1.50
2023-05-10T22:46:37.330Z,1.52
2023-05-10T22:49:39.555Z,1.50
2023-05-10T22:52:41.709Z,1.95
2023-05-10T22:55:43.834Z,2.00
2023-05-10T22:58:45.928Z,1.63
2023-05-10T23:01:48.989Z,1.75
2023-05-10T23:04:51.434Z,1.40
2023-05-10T23:07:54.352Z,1.90
2023-05-10T23:10:56.875Z,1.58
2023-05-10T23:13:59.067Z,1.38
2023-05-10T23:17:01.386Z,1.65
2023-05-10T23:20:03.758Z,1.58
2023-05-10T23:23:05.978Z,1.40
2023-05-10T23:26:08.853Z,1.60
2023-05-10T23:29:10.964Z,1.60
2023-05-10T23:32:13.188Z,1.63
2023-05-10T23:35:15.465Z,1.60
2023-05-10T23:38:17.765Z,1.60
2023-05-10T23:41:19.929Z,1.45
2023-05-10T23:44:22.111Z,1.73
2023-05-10T23:47:24.297Z,1.65
2023-05-10T23:50:27.082Z,1.70
2023-05-10T23:53:29.248Z,1.63
2023-05-10T23:56:31.431Z,1.88
2023-05-10T23:59:33.608Z,1.60
